Time;durP1;ratioP1;P1;durP2;ratioP2;P2;SDS_P1;SDS_P2;PMS_P1;PMS_P2;Temp;Humidity;BMP_temperature;BMP_pressure;BME280_temperature;BME280_humidity;BME280_pressure;Samples;Min_cycle;Max_cycle;Signal;HPM_P1;HPM_P2
2022/03/27 00:01:07;;;;;;;26.30;6.55;;;9.00;60.90;;;;;;6252352;28;20056;-79
2022/03/27 00:04:08;;;;;;;21.13;7.13;;;9.00;61.00;;;;;;6251590;28;20541;-78
2022/03/27 00:07:10;;;;;;;22.60;6.35;;;9.00;61.70;;;;;;6252145;28;20056;-78
2022/03/27 00:10:12;;;;;;;20.27;5.70;;;8.90;61.80;;;;;;6251602;28;20048;-78
2022/03/27 00:13:14;;;;;;;26.90;7.32;;;8.80;62.40;;;;;;6245998;28;20514;-79
2022/03/27 00:16:17;;;;;;;16.83;6.10;;;8.60;62.90;;;;;;6237483;28;20091;-79
2022/03/27 00:19:19;;;;;;;20.58;6.78;;;8.50;63.10;;;;;;6228049;28;20068;-79
2022/03/27 00:22:22;;;;;;;20.27;6.07;;;8.40;63.20;;;;;;6224582;28;20042;-79
2022/03/27 00:25:24;;;;;;;21.25;6.95;;;8.40;63.60;;;;;;6245389;28;20049;-79
2022/03/27 00:28:31;;;;;;;14.60;6.22;;;8.20;63.60;;;;;;6251294;28;20045;-79
2022/03/27 00:31:35;;;;;;;17.45;6.38;;;8.20;64.10;;;;;;6250787;28;20052;-78
2022/03/27 00:34:38;;;;;;;18.60;6.90;;;8.10;64.40;;;;;;6249626;28;20103;-78
2022/03/27 00:37:39;;;;;;;27.75;7.90;;;8.00;65.00;;;;;;6249248;28;20049;-79
2022/03/27 00:40:41;;;;;;;18.60;7.82;;;7.90;64.80;;;;;;6249154;28;20499;-78
2022/03/27 00:43:43;;;;;;;21.73;7.28;;;7.80;65.40;;;;;;6233933;28;20053;-78
2022/03/27 00:46:46;;;;;;;14.75;6.85;;;7.70;65.70;;;;;;6226847;28;20046;-78
2022/03/27 00:49:48;;;;;;;25.15;7.07;;;7.60;66.10;;;;;;6235659;28;20065;-78
2022/03/27 00:52:50;;;;;;;21.33;8.48;;;7.60;66.40;;;;;;6233765;28;20073;-80
2022/03/27 00:55:52;;;;;;;19.60;7.82;;;7.50;66.60;;;;;;6248936;28;20502;-80
2022/03/27 00:58:54;;;;;;;21.98;8.90;;;7.50;66.80;;;;;;6228980;28;20061;-80
2022/03/27 01:01:57;;;;;;;20.45;7.32;;;7.50;67.20;;;;;;6230916;28;20108;-78
2022/03/27 01:04:58;;;;;;;21.13;6.80;;;7.40;67.40;;;;;;6225549;28;20125;-78
2022/03/27 01:08:05;;;;;;;21.25;6.55;;;7.30;67.80;;;;;;6227667;28;20511;-79
2022/03/27 01:11:13;;;;;;;22.05;7.30;;;7.20;67.90;;;;;;6228661;28;20050;-78
2022/03/27 01:14:19;;;;;;;27.02;7.50;;;7.10;69.00;;;;;;6224932;28;20103;-78
2022/03/27 01:17:26;;;;;;;13.88;6.43;;;7.10;70.00;;;;;;6225112;28;20109;-77
2022/03/27 01:20:33;;;;;;;19.92;8.52;;;7.20;70.00;;;;;;6224676;28;20529;-77
2022/03/27 01:23:35;;;;;;;18.05;7.20;;;7.10;70.00;;;;;;6225106;28;20048;-78
2022/03/27 01:26:38;;;;;;;17.73;8.07;;;7.20;70.60;;;;;;6224294;28;20145;-77
2022/03/27 01:29:41;;;;;;;20.02;8.70;;;7.20;70.10;;;;;;6225289;28;20519;-77
2022/03/27 01:32:42;;;;;;;19.95;7.75;;;7.10;70.00;;;;;;6225481;28;20133;-79
2022/03/27 01:35:46;;;;;;;25.38;9.70;;;7.10;70.00;;;;;;6224559;28;20511;-78
2022/03/27 01:38:47;;;;;;;19.70;6.32;;;7.10;70.00;;;;;;6224460;28;20060;-78
2022/03/27 01:41:49;;;;;;;19.40;7.20;;;6.90;70.10;;;;;;6229430;28;20570;-79
2022/03/27 01:44:51;;;;;;;26.15;7.53;;;6.90;70.20;;;;;;6244720;28;20422;-79
2022/03/27 01:47:53;;;;;;;15.02;6.90;;;6.80;70.50;;;;;;6253245;28;20056;-80
2022/03/27 01:51:00;;;;;;;16.88;6.18;;;6.80;70.60;;;;;;6254200;28;20053;-80
2022/03/27 01:54:02;;;;;;;16.50;8.17;;;6.80;71.00;;;;;;6253815;28;20052;-80
2022/03/27 01:57:05;;;;;;;27.70;7.90;;;6.80;71.10;;;;;;6253638;28;20288;-79
2022/03/27 02:00:09;;;;;;;27.08;9.95;;;6.80;71.20;;;;;;6252938;28;20049;-79
2022/03/27 02:03:11;;;;;;;13.98;7.03;;;6.70;71.50;;;;;;6253434;28;20050;-79
2022/03/27 02:06:15;;;;;;;27.83;7.40;;;6.70;71.50;;;;;;6251824;28;20446;-79
2022/03/27 02:09:17;;;;;;;14.55;6.90;;;6.70;71.80;;;;;;6251388;28;20487;-79
2022/03/27 02:12:19;;;;;;;18.92;7.28;;;6.60;71.80;;;;;;6252092;28;20184;-79
2022/03/27 02:15:21;;;;;;;19.73;7.10;;;6.60;71.90;;;;;;6251261;28;20045;-78
2022/03/27 02:18:22;;;;;;;18.27;8.27;;;6.50;72.20;;;;;;6252947;28;20144;-79
2022/03/27 02:21:25;;;;;;;17.60;6.57;;;6.50;72.20;;;;;;6253508;28;20046;-79
2022/03/27 02:24:27;;;;;;;16.42;7.55;;;6.50;72.50;;;;;;6252493;28;20053;-80
2022/03/27 02:27:29;;;;;;;23.17;8.35;;;6.40;72.90;;;;;;6253072;28;20071;-79
2022/03/27 02:30:31;;;;;;;20.75;7.63;;;6.40;73.10;;;;;;6250961;28;20115;-78
2022/03/27 02:33:33;;;;;;;16.77;7.55;;;6.30;73.20;;;;;;6250419;28;20045;-78
2022/03/27 02:36:36;;;;;;;19.15;7.10;;;6.30;73.30;;;;;;6249023;28;20077;-79
2022/03/27 02:39:38;;;;;;;31.95;8.45;;;6.20;73.60;;;;;;6249031;28;20088;-80
2022/03/27 02:42:40;;;;;;;21.98;9.90;;;6.20;73.90;;;;;;6249098;28;20046;-79
2022/03/27 02:45:42;;;;;;;15.40;6.70;;;6.10;73.80;;;;;;6249248;28;20049;-79
2022/03/27 02:48:44;;;;;;;17.95;8.63;;;6.10;73.80;;;;;;6248519;28;20052;-79
2022/03/27 02:51:47;;;;;;;28.75;8.57;;;6.10;74.20;;;;;;6250199;28;20073;-79
2022/03/27 02:54:49;;;;;;;18.23;7.45;;;6.00;74.10;;;;;;6248257;28;20050;-77
2022/03/27 02:57:51;;;;;;;19.88;8.43;;;6.00;74.80;;;;;;6248944;28;20084;-79
2022/03/27 03:00:53;;;;;;;24.48;8.75;;;6.00;74.50;;;;;;6249060;28;20049;-79
2022/03/27 03:03:56;;;;;;;18.35;7.88;;;6.00;74.30;;;;;;6248603;28;20080;-79
2022/03/27 03:07:00;;;;;;;27.27;8.23;;;6.00;74.40;;;;;;6248189;28;20717;-79
2022/03/27 03:10:03;;;;;;;24.63;11.45;;;6.00;74.50;;;;;;6247736;28;20050;-79
2022/03/27 03:13:05;;;;;;;18.77;8.25;;;6.00;74.60;;;;;;6236834;28;20071;-79
2022/03/27 03:16:08;;;;;;;15.93;7.15;;;6.00;75.10;;;;;;6248845;28;20045;-80
2022/03/27 03:19:10;;;;;;;24.38;9.52;;;6.00;75.80;;;;;;6248752;28;20180;-79
2022/03/27 03:22:14;;;;;;;23.42;8.55;;;6.00;75.00;;;;;;6248549;28;20045;-81
2022/03/27 03:25:16;;;;;;;19.13;7.88;;;6.10;75.10;;;;;;6253235;28;20052;-79
2022/03/27 03:28:18;;;;;;;25.85;12.23;;;6.10;74.80;;;;;;6253150;28;20067;-80
2022/03/27 03:31:19;;;;;;;25.33;8.98;;;6.10;74.80;;;;;;6253577;28;20415;-81
2022/03/27 03:34:21;;;;;;;16.95;8.02;;;6.20;74.90;;;;;;6252517;28;20434;-79
2022/03/27 03:37:24;;;;;;;40.45;12.55;;;6.20;75.00;;;;;;6253557;28;20050;-79
2022/03/27 03:40:26;;;;;;;21.98;9.23;;;6.30;75.40;;;;;;6252957;28;20041;-80
2022/03/27 03:43:28;;;;;;;20.15;8.82;;;6.30;75.20;;;;;;6253007;28;20057;-79
2022/03/27 03:46:30;;;;;;;15.55;7.50;;;6.20;75.10;;;;;;6252533;28;20105;-79
2022/03/27 03:49:31;;;;;;;17.60;7.78;;;6.20;75.60;;;;;;6252199;28;20053;-79
2022/03/27 03:52:34;;;;;;;22.95;7.63;;;6.20;76.40;;;;;;6251999;28;20474;-79
2022/03/27 03:55:38;;;;;;;18.55;8.75;;;6.30;77.00;;;;;;6252532;28;20093;-78
2022/03/27 03:58:40;;;;;;;33.40;10.18;;;6.20;76.30;;;;;;6251642;28;20128;-80
2022/03/27 04:01:42;;;;;;;25.42;9.23;;;6.30;76.10;;;;;;6253138;28;20128;-78
2022/03/27 04:04:44;;;;;;;25.60;10.07;;;6.30;76.30;;;;;;6253602;28;20469;-79
2022/03/27 04:07:47;;;;;;;29.10;8.98;;;6.30;76.20;;;;;;6255103;28;20053;-79
2022/03/27 04:10:49;;;;;;;29.75;9.82;;;6.30;76.70;;;;;;6253562;28;20176;-79
2022/03/27 04:13:50;;;;;;;25.00;8.32;;;6.40;76.80;;;;;;6253651;28;20132;-79
2022/03/27 04:16:52;;;;;;;18.17;9.23;;;6.40;76.70;;;;;;6254982;28;20057;-81
2022/03/27 04:19:55;;;;;;;23.08;8.18;;;6.50;76.40;;;;;;6261546;28;20053;-79
2022/03/27 04:22:58;;;;;;;13.93;7.20;;;6.60;76.10;;;;;;6265391;28;20049;-81
2022/03/27 04:26:00;;;;;;;23.92;10.68;;;6.50;76.10;;;;;;6256933;28;20046;-80
2022/03/27 04:29:03;;;;;;;25.52;10.23;;;6.60;76.00;;;;;;6256467;28;20154;-80
2022/03/27 04:32:06;;;;;;;18.33;8.48;;;6.60;76.10;;;;;;6256389;28;20069;-78
2022/03/27 04:35:09;;;;;;;17.05;9.13;;;6.70;76.10;;;;;;6256436;28;20052;-80
2022/03/27 04:38:13;;;;;;;21.30;8.10;;;6.70;75.90;;;;;;6255753;28;20518;-80
2022/03/27 04:41:15;;;;;;;23.58;6.93;;;6.80;75.70;;;;;;6251547;28;20518;-80
2022/03/27 04:44:17;;;;;;;19.17;8.18;;;6.80;75.50;;;;;;6255741;28;20408;-79
2022/03/27 04:47:19;;;;;;;17.90;7.90;;;6.90;75.30;;;;;;6254701;28;20053;-81
2022/03/27 04:50:20;;;;;;;22.58;8.70;;;7.00;75.10;;;;;;6253659;28;20049;-80
2022/03/27 04:53:23;;;;;;;24.67;8.38;;;7.00;74.80;;;;;;6253635;28;20129;-82
2022/03/27 04:56:25;;;;;;;24.35;8.65;;;7.10;74.60;;;;;;6253726;28;20690;-80
2022/03/27 04:59:27;;;;;;;21.33;8.68;;;7.10;74.50;;;;;;6254160;28;20056;-80
2022/03/27 05:02:29;;;;;;;20.75;7.80;;;7.20;74.30;;;;;;6253411;28;20045;-82
2022/03/27 05:05:31;;;;;;;22.98;7.45;;;7.20;74.30;;;;;;6253922;28;20160;-81
2022/03/27 05:08:34;;;;;;;38.45;9.63;;;7.20;74.10;;;;;;6252060;28;20045;-81
2022/03/27 05:11:36;;;;;;;28.50;8.27;;;7.30;74.00;;;;;;6254183;28;20105;-81
2022/03/27 05:14:38;;;;;;;23.85;9.55;;;7.30;74.00;;;;;;6252785;28;20054;-81
2022/03/27 05:17:51;;;;;;;26.73;7.47;;;7.40;73.90;;;;;;6252856;28;20067;-80
2022/03/27 05:20:53;;;;;;;22.98;8.75;;;7.30;73.60;;;;;;6253291;28;20360;-80
2022/03/27 05:23:56;;;;;;;27.80;7.82;;;7.30;73.50;;;;;;6253281;28;20061;-82
2022/03/27 05:26:58;;;;;;;23.15;8.57;;;7.20;73.20;;;;;;6253095;28;20046;-82
2022/03/27 05:29:59;;;;;;;21.63;9.10;;;7.20;73.30;;;;;;6253046;28;20045;-81
2022/03/27 05:33:03;;;;;;;25.42;9.27;;;7.10;73.30;;;;;;6252131;28;20045;-80
2022/03/27 05:36:05;;;;;;;24.77;8.35;;;7.10;73.20;;;;;;6250949;28;20057;-81
2022/03/27 05:39:08;;;;;;;25.73;9.65;;;7.00;73.50;;;;;;6251608;28;20042;-82
2022/03/27 05:42:10;;;;;;;22.27;8.75;;;7.10;73.50;;;;;;6250760;28;20052;-80
2022/03/27 05:45:13;;;;;;;17.00;7.80;;;7.10;73.50;;;;;;6251210;28;20123;-81
2022/03/27 05:48:15;;;;;;;24.95;9.55;;;7.20;73.70;;;;;;6250511;28;20396;-83
2022/03/27 05:51:17;;;;;;;27.50;9.73;;;7.20;73.70;;;;;;6251116;28;20135;-81
2022/03/27 05:54:20;;;;;;;17.40;8.75;;;7.30;73.60;;;;;;6305591;22;20062;-80
2022/03/27 05:57:22;;;;;;;26.45;8.52;;;7.40;73.40;;;;;;6338374;28;20117;-80
2022/03/27 06:00:24;;;;;;;40.17;9.43;;;7.40;73.20;;;;;;6338720;28;20405;-80
2022/03/27 06:03:25;;;;;;;20.63;9.32;;;7.50;73.10;;;;;;6333534;28;20136;-80
2022/03/27 06:06:29;;;;;;;24.92;9.95;;;7.70;73.20;;;;;;6311821;28;20531;-81
2022/03/27 06:09:32;;;;;;;18.15;7.95;;;7.80;73.00;;;;;;6307332;28;20095;-79
2022/03/27 06:12:34;;;;;;;20.85;7.72;;;8.00;72.70;;;;;;6309839;28;20412;-81
2022/03/27 06:15:36;;;;;;;23.50;9.02;;;8.30;72.40;;;;;;6314417;28;20044;-81
2022/03/27 06:18:38;;;;;;;19.45;8.80;;;8.50;71.90;;;;;;6314344;28;20064;-80
2022/03/27 06:21:40;;;;;;;29.95;9.50;;;8.70;71.40;;;;;;6314129;28;20037;-82
2022/03/27 06:24:44;;;;;;;34.47;12.43;;;8.90;70.80;;;;;;6313499;28;20116;-81
2022/03/27 06:27:46;;;;;;;28.88;12.95;;;9.20;70.00;;;;;;6314556;28;20064;-80
2022/03/27 06:30:49;;;;;;;28.15;10.57;;;9.50;69.60;;;;;;6313914;28;20072;-81
2022/03/27 06:33:50;;;;;;;28.23;8.10;;;9.70;68.80;;;;;;6313519;28;20063;-81
2022/03/27 06:36:52;;;;;;;25.85;9.68;;;9.90;67.90;;;;;;6311741;28;20068;-82
2022/03/27 06:39:55;;;;;;;25.73;10.85;;;10.20;67.50;;;;;;6311542;28;20084;-80
2022/03/27 06:42:57;;;;;;;24.40;9.75;;;10.30;66.60;;;;;;6312627;28;20052;-81
2022/03/27 06:45:59;;;;;;;16.17;8.15;;;10.50;66.00;;;;;;6312445;28;20068;-80
2022/03/27 06:49:01;;;;;;;20.85;9.13;;;10.60;65.30;;;;;;6311724;28;20148;-81
2022/03/27 06:52:03;;;;;;;18.38;6.65;;;10.80;64.50;;;;;;6311569;28;20048;-81
2022/03/27 06:55:09;;;;;;;25.13;8.57;;;11.00;64.20;;;;;;6311702;28;20061;-80
2022/03/27 06:58:11;;;;;;;23.25;8.32;;;11.30;63.80;;;;;;6311778;28;20121;-82
2022/03/27 07:04:33;;;;;;;25.42;9.70;;;11.90;61.70;;;;;;6315337;28;20044;-81
2022/03/27 07:07:35;;;;;;;27.25;10.10;;;12.20;61.40;;;;;;6315463;28;20110;-81
2022/03/27 07:10:38;;;;;;;24.05;8.77;;;12.50;61.00;;;;;;6314000;28;20048;-80
2022/03/27 07:13:41;;;;;;;22.17;8.23;;;12.90;59.40;;;;;;6313673;28;20048;-81
2022/03/27 07:16:43;;;;;;;21.20;9.80;;;13.30;58.40;;;;;;6314008;28;20094;-81
2022/03/27 07:19:45;;;;;;;23.40;8.77;;;13.80;57.50;;;;;;6311831;28;20122;-81
2022/03/27 07:22:47;;;;;;;21.17;8.88;;;14.40;56.20;;;;;;6309704;28;20051;-82
2022/03/27 07:25:52;;;;;;;22.27;9.48;;;15.10;53.70;;;;;;6313469;28;20055;-80
2022/03/27 07:28:54;;;;;;;27.38;8.85;;;16.40;50.00;;;;;;6313393;28;20181;-80
2022/03/27 07:31:55;;;;;;;23.58;9.45;;;17.80;46.10;;;;;;6314253;28;20045;-80
2022/03/27 07:34:57;;;;;;;28.90;11.98;;;19.30;41.50;;;;;;6282142;28;20083;-81
2022/03/27 07:38:00;;;;;;;19.77;9.32;;;20.50;38.70;;;;;;6299444;28;20078;-80
2022/03/27 07:41:04;;;;;;;26.15;9.60;;;21.30;35.80;;;;;;6308390;28;20045;-80
2022/03/27 07:44:06;;;;;;;17.17;9.15;;;21.70;35.10;;;;;;6310471;28;20059;-80
2022/03/27 07:47:08;;;;;;;21.52;9.57;;;22.10;34.30;;;;;;6309933;28;20178;-79
2022/03/27 07:50:11;;;;;;;22.25;9.63;;;21.80;33.50;;;;;;6310386;28;20106;-79
2022/03/27 07:53:13;;;;;;;29.55;11.38;;;21.50;34.60;;;;;;6313454;28;20044;-81
2022/03/27 07:56:16;;;;;;;22.02;8.65;;;21.50;33.90;;;;;;6311405;28;20072;-82
2022/03/27 07:59:18;;;;;;;23.60;9.80;;;20.80;34.60;;;;;;6311916;28;20131;-79
2022/03/27 08:02:21;;;;;;;17.83;7.25;;;19.90;36.00;;;;;;6308974;28;20128;-77
2022/03/27 08:05:23;;;;;;;23.92;8.27;;;19.30;37.40;;;;;;6311494;28;20049;-77
2022/03/27 08:08:25;;;;;;;25.20;9.90;;;19.00;38.10;;;;;;6311594;28;20119;-79
2022/03/27 08:11:28;;;;;;;23.35;9.48;;;18.90;39.00;;;;;;6320120;28;20055;-78
2022/03/27 08:14:31;;;;;;;24.02;9.68;;;19.30;38.30;;;;;;6310936;28;20549;-81
2022/03/27 08:17:33;;;;;;;28.23;9.50;;;19.80;37.50;;;;;;6306257;28;20051;-79
2022/03/27 08:20:35;;;;;;;21.00;9.45;;;20.10;37.40;;;;;;6307507;28;20051;-79
2022/03/27 08:23:37;;;;;;;20.38;8.45;;;20.40;36.80;;;;;;6308606;28;20052;-81
2022/03/27 08:27:00;;;;;;;24.75;11.07;;;20.20;36.70;;;;;;6307891;28;20053;-80
2022/03/27 08:30:02;;;;;;;16.02;7.60;;;19.90;37.60;;;;;;6303346;28;20044;-79
2022/03/27 08:33:04;;;;;;;23.65;9.70;;;19.50;38.00;;;;;;6305767;28;20051;-79
2022/03/27 08:36:06;;;;;;;23.27;7.53;;;19.10;38.70;;;;;;6309138;28;20452;-79
2022/03/27 08:39:08;;;;;;;23.48;8.18;;;18.90;39.40;;;;;;6306078;28;20049;-81
2022/03/27 08:42:12;;;;;;;32.17;9.85;;;18.70;39.80;;;;;;6305007;28;20056;-79
2022/03/27 08:45:14;;;;;;;17.40;8.05;;;18.50;40.70;;;;;;6306010;28;20124;-81
2022/03/27 08:48:17;;;;;;;20.58;8.90;;;18.60;40.90;;;;;;6308383;28;20135;-80
2022/03/27 08:51:41;;;;;;;17.70;8.43;;;19.00;40.50;;;;;;6307370;28;20127;-79
2022/03/27 08:54:48;;;;;;;24.85;8.35;;;19.80;39.20;;;;;;6307378;28;20448;-81
2022/03/27 08:58:01;;;;;;;21.83;8.82;;;20.30;38.00;;;;;;6306905;28;20098;-78
2022/03/27 09:01:04;;;;;;;20.83;9.07;;;20.60;37.30;;;;;;6306628;28;20045;-80
2022/03/27 09:04:06;;;;;;;20.60;9.82;;;21.00;37.00;;;;;;6306526;28;20093;-81
2022/03/27 09:07:08;;;;;;;15.68;8.30;;;21.40;36.00;;;;;;6307504;28;20051;-80
2022/03/27 09:10:12;;;;;;;23.38;9.57;;;22.00;35.20;;;;;;6307777;28;20614;-81
2022/03/27 09:13:17;;;;;;;20.08;8.20;;;22.30;34.20;;;;;;6306546;28;20118;-79
2022/03/27 09:16:19;;;;;;;19.50;9.00;;;22.20;34.20;;;;;;6312166;28;20056;-81
2022/03/27 09:19:33;;;;;;;26.52;8.10;;;22.50;34.40;;;;;;6306114;28;20057;-81
2022/03/27 09:22:34;;;;;;;17.80;7.82;;;22.40;34.10;;;;;;6304992;28;20042;-80
2022/03/27 09:26:01;;;;;;;17.40;8.05;;;22.20;34.40;;;;;;6307538;28;20051;-80
2022/03/27 09:29:10;;;;;;;13.43;7.07;;;21.80;35.10;;;;;;6287435;28;20072;-80
2022/03/27 09:32:25;;;;;;;19.88;8.73;;;21.40;36.60;;;;;;6304049;28;20094;-81
2022/03/27 09:35:27;;;;;;;17.52;8.32;;;21.40;35.90;;;;;;6304858;28;20052;-83
2022/03/27 09:38:29;;;;;;;18.63;8.80;;;21.50;35.40;;;;;;6304971;28;20040;-78
2022/03/27 09:41:34;;;;;;;20.42;8.25;;;21.40;35.40;;;;;;6304221;28;20569;-81
2022/03/27 09:44:39;;;;;;;18.38;8.82;;;21.10;36.20;;;;;;6305942;28;20068;-81
2022/03/27 09:47:42;;;;;;;20.15;8.35;;;21.20;35.90;;;;;;6305305;28;20413;-81
2022/03/27 09:50:44;;;;;;;20.92;8.23;;;21.20;35.70;;;;;;6304848;28;20131;-81
2022/03/27 09:53:46;;;;;;;18.67;6.82;;;20.90;36.10;;;;;;6302917;28;20437;-81
2022/03/27 09:56:47;;;;;;;19.23;8.77;;;20.80;36.80;;;;;;6303943;28;20045;-80
2022/03/27 09:59:52;;;;;;;15.65;6.82;;;21.00;36.50;;;;;;6304113;28;20062;-82
2022/03/27 10:02:53;;;;;;;18.63;8.60;;;21.20;36.60;;;;;;6303737;28;20120;-81
2022/03/27 10:05:55;;;;;;;15.32;7.05;;;21.20;36.20;;;;;;6303596;28;20045;-81
2022/03/27 10:08:57;;;;;;;21.90;7.82;;;21.20;35.80;;;;;;6301863;28;20044;-79
2022/03/27 10:12:00;;;;;;;15.95;7.60;;;21.30;36.30;;;;;;6302638;28;20547;-80
2022/03/27 10:15:07;;;;;;;15.23;7.25;;;21.80;35.90;;;;;;6301605;28;20060;-81
2022/03/27 10:18:12;;;;;;;18.10;7.97;;;22.30;35.10;;;;;;6298910;28;20127;-81
2022/03/27 10:21:15;;;;;;;16.67;7.38;;;22.60;34.30;;;;;;6303479;28;20044;-81
2022/03/27 10:24:18;;;;;;;22.88;8.32;;;22.80;34.20;;;;;;6302778;28;20051;-82
2022/03/27 10:27:21;;;;;;;13.63;7.25;;;23.10;33.80;;;;;;6302929;28;20547;-81
2022/03/27 10:30:25;;;;;;;16.85;7.68;;;23.10;33.40;;;;;;6302727;28;20043;-79
2022/03/27 10:33:29;;;;;;;18.30;7.57;;;23.10;33.10;;;;;;6277889;28;20138;-81
2022/03/27 10:36:40;;;;;;;15.63;7.47;;;22.90;32.50;;;;;;6295492;28;20048;-81
2022/03/27 10:39:53;;;;;;;19.80;7.40;;;23.00;32.90;;;;;;6302387;28;20430;-81
2022/03/27 10:43:00;;;;;;;20.05;7.45;;;23.40;32.70;;;;;;6298260;28;20050;-82
2022/03/27 10:46:18;;;;;;;15.13;7.05;;;23.50;31.70;;;;;;6302848;28;20094;-80
2022/03/27 10:49:20;;;;;;;20.85;8.02;;;23.90;31.50;;;;;;6298931;28;20398;-80
2022/03/27 10:52:22;;;;;;;16.10;7.70;;;23.90;31.60;;;;;;6298824;28;20072;-81
2022/03/27 10:55:36;;;;;;;21.42;7.47;;;24.20;31.60;;;;;;6290621;28;20125;-80
2022/03/27 10:58:40;;;;;;;20.60;7.63;;;24.60;31.10;;;;;;6299894;28;20045;-82
2022/03/27 11:01:45;;;;;;;18.85;7.97;;;24.80;30.70;;;;;;6302584;28;20127;-81
2022/03/27 11:04:47;;;;;;;22.08;7.70;;;25.10;30.50;;;;;;6304265;28;20060;-80
2022/03/27 11:07:49;;;;;;;16.55;7.72;;;25.00;30.30;;;;;;6308284;28;20088;-80
2022/03/27 11:10:54;;;;;;;12.90;7.15;;;25.00;30.60;;;;;;6303416;28;20075;-80
2022/03/27 11:13:56;;;;;;;19.27;8.23;;;25.10;30.70;;;;;;6304014;28;20366;-79
2022/03/27 11:17:15;;;;;;;17.48;7.88;;;25.40;30.00;;;;;;6308436;28;20422;-80
2022/03/27 11:20:47;;;;;;;17.60;8.02;;;25.50;29.90;;;;;;6307852;28;20049;-81
2022/03/27 11:23:49;;;;;;;19.90;7.78;;;25.70;29.80;;;;;;6206793;28;20053;-81
2022/03/27 11:26:52;;;;;;;18.88;6.90;;;25.70;29.70;;;;;;6308062;28;20048;-79
2022/03/27 11:30:12;;;;;;;13.07;6.35;;;25.70;29.00;;;;;;6304418;28;20059;-80
2022/03/27 11:33:18;;;;;;;16.75;5.60;;;25.80;28.70;;;;;;6314921;28;20044;-81
2022/03/27 11:36:25;;;;;;;20.30;5.90;;;25.70;28.40;;;;;;6311151;28;20049;-78
2022/03/27 11:39:34;;;;;;;15.27;6.90;;;25.90;28.50;;;;;;6311479;28;20075;-81
2022/03/27 11:42:37;;;;;;;15.13;6.13;;;26.00;28.00;;;;;;6303799;28;20055;-79
2022/03/27 11:45:40;;;;;;;16.50;7.25;;;26.30;27.80;;;;;;6308246;28;20052;-81
2022/03/27 11:48:43;;;;;;;15.35;5.82;;;25.80;27.50;;;;;;6309620;28;20044;-82
2022/03/27 11:51:45;;;;;;;16.27;6.25;;;25.30;28.30;;;;;;6310604;28;20131;-81
2022/03/27 11:54:48;;;;;;;15.93;5.88;;;25.20;28.30;;;;;;6308980;28;20059;-79
2022/03/27 11:57:53;;;;;;;14.30;5.05;;;24.70;28.50;;;;;;6310852;28;20044;-81
2022/03/27 12:00:54;;;;;;;10.73;5.25;;;24.60;28.70;;;;;;6302323;22;20453;-81
2022/03/27 12:03:59;;;;;;;10.15;4.93;;;24.60;28.70;;;;;;6282369;28;20041;-83
2022/03/27 12:07:02;;;;;;;8.25;4.78;;;24.90;28.50;;;;;;6283451;28;20049;-82
2022/03/27 12:10:05;;;;;;;20.13;6.50;;;24.80;28.20;;;;;;6281853;28;20472;-83
2022/03/27 12:13:08;;;;;;;16.17;6.15;;;25.00;28.00;;;;;;6281842;28;20045;-84
2022/03/27 12:16:16;;;;;;;13.73;5.90;;;25.30;28.40;;;;;;6281913;28;20053;-83
2022/03/27 12:19:19;;;;;;;13.95;5.10;;;25.70;28.10;;;;;;6281239;28;20080;-84
2022/03/27 12:22:35;;;;;;;15.60;5.75;;;25.70;27.50;;;;;;6280673;28;20061;-81
2022/03/27 12:25:37;;;;;;;11.88;5.63;;;25.50;27.30;;;;;;6280007;28;20041;-84
2022/03/27 12:31:59;;;;;;;15.98;6.05;;;25.90;27.80;;;;;;6280199;28;20053;-83
2022/03/27 12:35:05;;;;;;;14.95;6.85;;;25.90;27.60;;;;;;6280353;28;20041;-83
2022/03/27 12:38:07;;;;;;;13.52;5.80;;;25.90;28.10;;;;;;6279823;28;20045;-83
2022/03/27 12:41:10;;;;;;;13.65;6.43;;;25.70;28.10;;;;;;6278842;28;20045;-81
2022/03/27 12:44:12;;;;;;;11.73;5.68;;;25.50;28.60;;;;;;6279708;28;20137;-82
2022/03/27 12:47:14;;;;;;;12.75;6.03;;;25.70;28.60;;;;;;6280887;28;20498;-83
2022/03/27 12:50:35;;;;;;;17.45;6.13;;;26.00;28.70;;;;;;6281841;28;20049;-83
2022/03/27 12:53:37;;;;;;;13.05;5.68;;;26.20;27.90;;;;;;6278935;28;20044;-80
2022/03/27 12:56:57;;;;;;;14.98;5.80;;;25.90;28.30;;;;;;6277365;28;20045;-80
2022/03/27 12:59:59;;;;;;;12.65;5.43;;;25.50;28.40;;;;;;6280104;28;20099;-81
2022/03/27 13:03:15;;;;;;;20.13;6.78;;;25.50;28.00;;;;;;6282858;28;20645;-83
2022/03/27 13:06:18;;;;;;;15.98;6.30;;;25.30;27.70;;;;;;6280512;28;20446;-82
2022/03/27 13:09:22;;;;;;;20.75;6.60;;;25.20;27.90;;;;;;6279428;28;20048;-82
2022/03/27 13:12:27;;;;;;;13.73;5.63;;;25.30;28.10;;;;;;6280007;28;20041;-81
2022/03/27 13:15:43;;;;;;;10.90;5.15;;;25.60;27.70;;;;;;6280350;28;20044;-79
2022/03/27 13:18:56;;;;;;;19.42;6.28;;;25.80;28.30;;;;;;6281172;28;20442;-81
2022/03/27 13:22:02;;;;;;;9.90;4.22;;;25.50;27.50;;;;;;6276093;28;20044;-80
2022/03/27 13:25:04;;;;;;;9.05;4.43;;;25.30;28.20;;;;;;6274269;28;20133;-79
2022/03/27 13:28:07;;;;;;;11.50;5.47;;;25.40;26.60;;;;;;6274828;28;20194;-80
2022/03/27 13:31:13;;;;;;;16.15;5.00;;;25.20;26.60;;;;;;6276164;28;20044;-80
2022/03/27 13:34:15;;;;;;;16.83;6.15;;;25.30;26.90;;;;;;6276052;28;20041;-81
2022/03/27 13:37:18;;;;;;;11.23;5.03;;;25.50;27.70;;;;;;6274658;28;20049;-80
2022/03/27 13:40:21;;;;;;;13.65;5.07;;;25.90;27.30;;;;;;6273769;28;20048;-79
2022/03/27 13:43:21;;;;;;;8.95;4.57;;;26.00;26.70;;;;;;6266020;28;20058;-79
2022/03/27 13:46:24;;;;;;;10.90;5.38;;;25.90;26.30;;;;;;6274375;28;20045;-81
2022/03/27 13:49:26;;;;;;;14.68;5.53;;;26.00;27.90;;;;;;6277485;28;20049;-81
2022/03/27 13:52:29;;;;;;;12.45;5.45;;;26.10;27.80;;;;;;6275562;28;20053;-82
2022/03/27 13:55:32;;;;;;;15.93;5.72;;;26.20;28.00;;;;;;6274573;28;20107;-80
2022/03/27 13:58:34;;;;;;;16.23;4.90;;;26.60;26.20;;;;;;6273201;28;20194;-80
2022/03/27 14:01:36;;;;;;;9.52;4.57;;;26.70;26.00;;;;;;6274823;28;20551;-79
2022/03/27 14:04:38;;;;;;;8.95;4.07;;;26.50;25.30;;;;;;6274290;28;20052;-81
2022/03/27 14:07:41;;;;;;;17.27;5.35;;;26.20;26.10;;;;;;6274852;28;20132;-81
2022/03/27 14:10:43;;;;;;;14.15;4.80;;;25.90;25.70;;;;;;6275052;28;20564;-80
2022/03/27 14:13:45;;;;;;;19.00;5.93;;;26.10;26.20;;;;;;6274897;28;20170;-81
2022/03/27 14:16:50;;;;;;;10.38;4.32;;;26.40;26.20;;;;;;6273620;28;20045;-82
2022/03/27 14:19:52;;;;;;;13.00;4.53;;;26.80;25.30;;;;;;6278173;28;20049;-81
2022/03/27 14:22:58;;;;;;;11.82;4.82;;;26.80;25.80;;;;;;6276700;28;20048;-81
2022/03/27 14:26:01;;;;;;;15.20;5.90;;;26.60;25.40;;;;;;6278539;28;20060;-81
2022/03/27 14:29:03;;;;;;;15.40;6.45;;;26.20;25.40;;;;;;6277731;28;20045;-82
2022/03/27 14:32:09;;;;;;;20.13;5.85;;;25.90;25.90;;;;;;6280985;28;20056;-82
2022/03/27 14:35:11;;;;;;;12.77;4.80;;;25.70;25.90;;;;;;6277202;28;20052;-80
2022/03/27 14:38:14;;;;;;;10.80;5.38;;;25.60;26.50;;;;;;6273564;28;20417;-82
2022/03/27 14:41:17;;;;;;;12.98;5.05;;;25.60;26.70;;;;;;6276108;28;20060;-82
2022/03/27 14:44:19;;;;;;;13.25;5.93;;;25.50;27.50;;;;;;6272626;28;20054;-83
2022/03/27 14:47:21;;;;;;;15.10;6.50;;;25.10;28.20;;;;;;6274429;28;20053;-83
2022/03/27 14:50:25;;;;;;;10.70;5.47;;;25.20;28.00;;;;;;6274528;28;20045;-83
2022/03/27 14:53:31;;;;;;;18.95;5.38;;;25.10;27.80;;;;;;6273643;28;20403;-83
2022/03/27 14:56:32;;;;;;;10.77;5.15;;;25.00;28.20;;;;;;6274171;28;20179;-82
2022/03/27 14:59:35;;;;;;;14.10;5.55;;;25.00;26.80;;;;;;6274025;28;20391;-82
2022/03/27 15:02:37;;;;;;;14.80;5.30;;;25.00;26.60;;;;;;6275481;28;20538;-83
2022/03/27 15:05:40;;;;;;;11.23;5.30;;;24.80;26.30;;;;;;6279212;28;20045;-82
2022/03/27 15:08:44;;;;;;;16.15;5.35;;;24.80;26.60;;;;;;6287838;28;20044;-83
2022/03/27 15:11:46;;;;;;;11.45;5.13;;;24.80;27.40;;;;;;6294566;28;20048;-84
2022/03/27 15:14:48;;;;;;;23.77;6.15;;;24.80;27.80;;;;;;6282876;28;20049;-84
2022/03/27 15:17:51;;;;;;;10.73;5.07;;;24.70;27.80;;;;;;6277316;28;20052;-82
2022/03/27 15:20:53;;;;;;;11.20;5.53;;;24.50;28.00;;;;;;6280965;28;20066;-84
2022/03/27 15:23:57;;;;;;;16.80;5.57;;;24.50;28.30;;;;;;6281622;28;20136;-84
2022/03/27 15:26:59;;;;;;;16.02;5.18;;;24.20;27.70;;;;;;6283643;28;20048;-83
2022/03/27 15:30:01;;;;;;;12.32;5.72;;;24.00;28.10;;;;;;6285196;28;20048;-81
2022/03/27 15:33:03;;;;;;;15.98;6.45;;;23.70;28.50;;;;;;6280431;28;20061;-81
2022/03/27 15:36:05;;;;;;;12.32;5.00;;;23.40;28.70;;;;;;6278473;28;20147;-83
2022/03/27 15:39:09;;;;;;;16.65;4.75;;;23.10;28.70;;;;;;6277552;28;20405;-79
2022/03/27 15:42:11;;;;;;;10.48;4.82;;;23.00;29.10;;;;;;6278740;28;20136;-82
2022/03/27 15:45:14;;;;;;;10.95;5.05;;;23.00;29.50;;;;;;6266726;28;20064;-81
2022/03/27 15:48:16;;;;;;;11.68;4.60;;;22.70;29.60;;;;;;6277100;28;20056;-77
2022/03/27 15:51:18;;;;;;;14.07;6.45;;;22.50;29.90;;;;;;6279620;28;20049;-84
2022/03/27 15:54:21;;;;;;;19.58;6.10;;;22.40;29.60;;;;;;6279553;28;20037;-79